Flugplatz Mindelheim-Mattsies

Für EDMN sind keine METAR/TAF Berichte vorhanden.
Es werden die Flugwettermeldungen vom Flugplatz Memmingen Allgau in 24 km Entfernung angezeigt.

Bericht für EDJA

vom 20.10. um 04:20 UTC

Wind 6 kt aus 190°

Sichtweite 10 km oder mehr

gute Sicht, keine Wolken < 5000 ft, keine CB, keine Wettererscheinungen (CAVOK)

Temperatur 8.0°C

Taupunkt 5.0°C

Luftfeuchtigkeit 81%

Luftdruck 1019 hPa

EDJA 200420Z 19006KT CAVOK 08/05 Q1019
Keine Prognose (TAF) verfügbar.
Impressum